createdAt,value
2023-05-15T00:00:27.303Z,79.20
2023-05-15T00:01:17.373Z,76.94
2023-05-15T00:02:07.455Z,76.84
2023-05-15T00:02:57.565Z,77.68
2023-05-15T00:03:47.569Z,75.32
2023-05-15T00:04:37.634Z,75.06
2023-05-15T00:05:27.822Z,79.63
2023-05-15T00:06:17.892Z,77.20
2023-05-15T00:07:07.959Z,72.65
2023-05-15T00:07:58.218Z,72.47
2023-05-15T00:08:48.285Z,73.44
2023-05-15T00:09:38.330Z,72.26
2023-05-15T00:10:28.417Z,69.81
2023-05-15T00:11:18.464Z,70.87
2023-05-15T00:12:08.574Z,63.89
2023-05-15T00:12:58.579Z,62.25
2023-05-15T00:13:48.642Z,63.11
2023-05-15T00:14:38.707Z,62.33
2023-05-15T00:15:28.759Z,56.54
2023-05-15T00:16:18.868Z,59.87
2023-05-15T00:17:09.011Z,62.34
2023-05-15T00:17:59.084Z,53.99
2023-05-15T00:18:49.192Z,53.75
2023-05-15T00:19:39.454Z,60.89
2023-05-15T00:20:29.509Z,62.97
2023-05-15T00:21:19.577Z,63.83
2023-05-15T00:22:09.856Z,63.79
2023-05-15T00:22:59.886Z,64.19
2023-05-15T00:23:49.949Z,67.70
2023-05-15T00:24:40.008Z,62.10
2023-05-15T00:25:30.103Z,69.00
2023-05-15T00:26:20.124Z,64.96
2023-05-15T00:27:10.165Z,68.75
2023-05-15T00:28:00.225Z,67.11
2023-05-15T00:28:50.277Z,66.67
2023-05-15T00:29:40.340Z,68.28
2023-05-15T00:30:30.401Z,67.38
2023-05-15T00:31:20.733Z,66.30
2023-05-15T00:32:10.725Z,64.23
2023-05-15T00:33:00.878Z,62.13
2023-05-15T00:33:51.104Z,61.54
2023-05-15T00:34:41.165Z,61.90
2023-05-15T00:35:31.229Z,61.28
2023-05-15T00:36:21.567Z,61.74
2023-05-15T00:37:11.606Z,63.66
2023-05-15T00:38:01.665Z,60.87
2023-05-15T00:38:51.990Z,61.80
2023-05-15T00:39:42.058Z,58.45
2023-05-15T00:40:32.216Z,54.51
2023-05-15T00:41:22.456Z,58.75
2023-05-15T00:42:12.479Z,54.21
2023-05-15T00:43:02.554Z,51.31
2023-05-15T00:43:52.628Z,54.63
2023-05-15T00:44:42.679Z,52.75
2023-05-15T00:45:32.751Z,53.38
2023-05-15T00:46:22.840Z,50.45
2023-05-15T00:47:12.921Z,52.28
2023-05-15T00:48:02.907Z,51.40
2023-05-15T00:48:52.972Z,48.92
2023-05-15T00:49:43.054Z,52.90
2023-05-15T00:50:33.369Z,49.13
2023-05-15T00:51:23.457Z,49.70
2023-05-15T00:52:13.483Z,50.61
2023-05-15T00:53:03.807Z,47.02
2023-05-15T00:53:53.904Z,50.03
2023-05-15T00:54:43.942Z,58.68
2023-05-15T00:55:34.312Z,53.00
2023-05-15T00:56:24.348Z,49.63
2023-05-15T00:57:14.379Z,47.38
2023-05-15T00:58:04.699Z,48.07
2023-05-15T00:58:54.767Z,43.56
2023-05-15T00:59:44.820Z,40.66
2023-05-15T01:00:34.914Z,37.13
2023-05-15T01:01:25.038Z,38.25
2023-05-15T01:02:15.090Z,32.46
2023-05-15T01:03:05.107Z,39.98
2023-05-15T01:03:55.123Z,32.47
2023-05-15T01:04:45.193Z,36.59
2023-05-15T01:05:35.250Z,32.77
2023-05-15T01:06:25.351Z,25.60
2023-05-15T01:07:15.508Z,33.84
2023-05-15T01:08:05.565Z,26.00
2023-05-15T01:08:55.624Z,29.51
2023-05-15T01:09:45.943Z,30.71
2023-05-15T01:10:36.011Z,29.26
2023-05-15T01:11:26.177Z,35.67
2023-05-15T01:12:16.401Z,35.70
2023-05-15T01:13:06.466Z,39.96
2023-05-15T01:13:56.526Z,34.91
2023-05-15T01:14:46.852Z,36.83
2023-05-15T01:15:36.926Z,37.33
2023-05-15T01:16:27.002Z,34.76
2023-05-15T01:17:17.019Z,34.68
2023-05-15T01:18:07.240Z,31.59
2023-05-15T01:18:57.279Z,34.10
2023-05-15T01:19:47.330Z,33.61
2023-05-15T01:20:37.291Z,33.90
2023-05-15T01:21:27.361Z,32.03
2023-05-15T01:22:17.397Z,29.57
2023-05-15T01:23:07.453Z,30.81
2023-05-15T01:23:57.674Z,26.41
2023-05-15T01:24:47.725Z,30.75
2023-05-15T01:25:37.800Z,28.57
2023-05-15T01:26:28.135Z,25.15
2023-05-15T01:27:18.187Z,27.19
2023-05-15T01:28:08.223Z,30.72
2023-05-15T01:28:58.563Z,31.90
2023-05-15T01:29:48.626Z,32.13
2023-05-15T01:30:38.697Z,33.90
2023-05-15T01:31:29.065Z,36.38
2023-05-15T01:32:19.395Z,32.03
2023-05-15T01:33:09.221Z,36.15
2023-05-15T01:33:59.178Z,33.37
2023-05-15T01:34:49.243Z,27.73
2023-05-15T01:35:39.308Z,32.55
2023-05-15T01:36:29.390Z,31.66
2023-05-15T01:37:19.416Z,28.19
2023-05-15T01:38:09.485Z,28.60
2023-05-15T01:38:59.532Z,26.69
2023-05-15T01:39:49.600Z,23.95
2023-05-15T01:40:39.654Z,29.58
2023-05-15T01:41:29.740Z,33.84
2023-05-15T01:42:19.939Z,27.90
2023-05-15T01:43:10.076Z,28.40
2023-05-15T01:44:00.171Z,27.12
2023-05-15T01:44:50.215Z,28.04
2023-05-15T01:45:40.548Z,30.08
2023-05-15T01:46:31.424Z,27.79
2023-05-15T01:47:20.659Z,26.76
2023-05-15T01:48:10.726Z,28.72
2023-05-15T01:49:00.800Z,36.56
2023-05-15T01:49:50.862Z,38.31
2023-05-15T01:50:40.934Z,37.96
2023-05-15T01:51:31.018Z,37.61
2023-05-15T01:52:21.044Z,39.21
2023-05-15T01:53:11.118Z,42.01
2023-05-15T01:54:01.186Z,42.80
2023-05-15T01:54:51.511Z,40.74
2023-05-15T01:55:42.131Z,39.24
2023-05-15T01:56:31.653Z,41.42
2023-05-15T01:57:21.671Z,46.57
2023-05-15T01:58:11.761Z,48.53
2023-05-15T01:59:01.821Z,50.73
2023-05-15T01:59:51.881Z,50.63
2023-05-15T02:00:42.447Z,47.96
2023-05-15T02:01:32.040Z,46.37
2023-05-15T02:02:22.198Z,47.83
2023-05-15T02:03:12.117Z,54.91
2023-05-15T02:04:02.592Z,55.92
2023-05-15T02:04:52.476Z,54.13
2023-05-15T02:05:42.528Z,56.22
2023-05-15T02:06:32.863Z,60.24
2023-05-15T02:07:22.897Z,55.17
2023-05-15T02:08:12.971Z,59.18
2023-05-15T02:09:03.285Z,60.18
2023-05-15T02:09:53.351Z,65.03
2023-05-15T02:10:43.408Z,60.92
2023-05-15T02:11:33.741Z,65.23
2023-05-15T02:12:23.791Z,67.02
2023-05-15T02:13:13.844Z,69.34
2023-05-15T02:14:04.194Z,72.07
2023-05-15T02:14:54.228Z,68.70
2023-05-15T02:15:44.295Z,71.51
2023-05-15T02:16:34.720Z,71.63
2023-05-15T02:17:24.718Z,73.52
2023-05-15T02:18:14.754Z,71.79
2023-05-15T02:19:05.118Z,69.39
2023-05-15T02:19:55.123Z,70.08
2023-05-15T02:20:45.181Z,77.88
2023-05-15T02:21:35.247Z,75.28
2023-05-15T02:22:25.307Z,77.45
2023-05-15T02:23:15.374Z,74.15
2023-05-15T02:24:05.436Z,73.41
2023-05-15T02:24:56.490Z,75.74
2023-05-15T02:25:45.579Z,80.13
2023-05-15T02:26:35.657Z,81.24
2023-05-15T02:27:25.689Z,77.38
2023-05-15T02:28:15.839Z,81.80
2023-05-15T02:29:05.893Z,77.97
2023-05-15T02:29:55.978Z,76.86
2023-05-15T02:30:46.292Z,68.80
2023-05-15T02:31:36.416Z,72.18
2023-05-15T02:32:26.419Z,74.94
2023-05-15T02:33:16.726Z,78.10
2023-05-15T02:34:06.783Z,74.67
2023-05-15T02:34:56.850Z,72.84
2023-05-15T02:35:47.710Z,69.10
2023-05-15T02:36:37.233Z,75.36
2023-05-15T02:37:27.295Z,75.30
2023-05-15T02:38:17.623Z,72.58
2023-05-15T02:39:07.693Z,73.93
2023-05-15T02:39:57.746Z,75.68
2023-05-15T02:40:48.097Z,70.68
2023-05-15T02:41:38.168Z,68.03
2023-05-15T02:42:28.199Z,72.48
2023-05-15T02:43:18.521Z,66.53
2023-05-15T02:44:08.583Z,70.93
2023-05-15T02:44:58.672Z,67.19
2023-05-15T02:45:48.826Z,68.73
2023-05-15T02:46:38.761Z,70.86
2023-05-15T02:47:28.859Z,71.27
2023-05-15T02:48:18.890Z,72.52
2023-05-15T02:49:08.959Z,77.95
2023-05-15T02:49:59.034Z,78.75
2023-05-15T02:50:49.098Z,75.84
2023-05-15T02:51:39.167Z,76.77
2023-05-15T02:52:29.449Z,80.98
2023-05-15T02:53:19.510Z,82.26
2023-05-15T02:54:09.572Z,82.38
2023-05-15T02:54:59.899Z,86.64
2023-05-15T02:55:49.980Z,85.90
2023-05-15T02:56:40.046Z,83.16
2023-05-15T02:57:30.072Z,81.15
2023-05-15T02:58:20.152Z,83.19
2023-05-15T02:59:10.194Z,82.74
2023-05-15T03:00:00.260Z,84.30
2023-05-15T03:00:50.402Z,89.69
2023-05-15T03:01:40.440Z,82.08
2023-05-15T03:02:30.452Z,79.22
2023-05-15T03:03:20.501Z,80.20
2023-05-15T03:04:10.616Z,83.64
2023-05-15T03:05:00.628Z,80.02
2023-05-15T03:05:50.689Z,79.80
2023-05-15T03:06:40.778Z,84.47
2023-05-15T03:07:30.815Z,81.35
2023-05-15T03:08:20.831Z,81.21
2023-05-15T03:09:10.902Z,84.17
2023-05-15T03:10:00.951Z,83.77
2023-05-15T03:10:51.278Z,85.70
2023-05-15T03:11:41.355Z,85.73
2023-05-15T03:12:31.413Z,90.18
2023-05-15T03:13:21.681Z,89.01
2023-05-15T03:14:11.752Z,96.32
2023-05-15T03:15:01.802Z,93.88
2023-05-15T03:15:52.154Z,95.78
2023-05-15T03:16:42.300Z,93.75
2023-05-15T03:17:32.271Z,96.97
2023-05-15T03:18:22.552Z,93.94
2023-05-15T03:19:12.689Z,92.59
2023-05-15T03:20:02.671Z,93.29
2023-05-15T03:20:52.783Z,90.10
2023-05-15T03:21:43.341Z,89.89
2023-05-15T03:22:32.842Z,90.10
2023-05-15T03:23:22.899Z,85.70
2023-05-15T03:24:12.976Z,85.32
2023-05-15T03:25:03.040Z,82.51
2023-05-15T03:25:53.104Z,86.02
2023-05-15T03:26:43.210Z,83.82
2023-05-15T03:27:33.475Z,75.89
2023-05-15T03:28:23.545Z,72.34
2023-05-15T03:29:13.614Z,74.96
2023-05-15T03:30:03.932Z,71.65
2023-05-15T03:30:54.017Z,71.50
2023-05-15T03:31:44.123Z,64.28
2023-05-15T03:32:34.096Z,67.14
2023-05-15T03:33:24.142Z,67.13
2023-05-15T03:34:14.204Z,61.90
2023-05-15T03:35:04.265Z,60.53
2023-05-15T03:35:54.337Z,56.99
2023-05-15T03:36:44.420Z,55.90
2023-05-15T03:37:34.444Z,53.64
2023-05-15T03:38:24.513Z,54.81
2023-05-15T03:39:14.753Z,47.32
2023-05-15T03:40:04.824Z,48.12
2023-05-15T03:40:54.881Z,44.65
2023-05-15T03:41:45.218Z,49.97
2023-05-15T03:42:35.262Z,47.91
2023-05-15T03:43:25.327Z,44.27
2023-05-15T03:44:15.650Z,43.67
2023-05-15T03:45:05.710Z,46.56
2023-05-15T03:45:55.782Z,45.51
2023-05-15T03:46:46.191Z,44.45
2023-05-15T03:47:36.212Z,41.76
2023-05-15T03:48:26.252Z,36.87
2023-05-15T03:49:16.526Z,38.18
2023-05-15T03:50:06.556Z,34.55
2023-05-15T03:50:56.625Z,33.94
2023-05-15T03:51:46.984Z,36.05
2023-05-15T03:52:37.460Z,30.83
2023-05-15T03:53:27.063Z,33.01
2023-05-15T03:54:17.127Z,35.10
2023-05-15T03:55:07.188Z,26.56
2023-05-15T03:55:57.256Z,30.14
2023-05-15T03:56:47.352Z,26.86
2023-05-15T03:57:37.402Z,26.22
2023-05-15T03:58:27.566Z,30.15
2023-05-15T03:59:17.625Z,31.53
2023-05-15T04:00:07.689Z,27.84
2023-05-15T04:00:57.750Z,25.77
2023-05-15T04:02:02.651Z,25.03
2023-05-15T04:02:38.988Z,25.05
2023-05-15T04:03:28.005Z,25.37
2023-05-15T04:04:18.541Z,20.90
2023-05-15T04:05:08.175Z,24.19
2023-05-15T04:05:58.318Z,26.86
2023-05-15T04:06:48.369Z,22.24
2023-05-15T04:07:38.392Z,27.23
2023-05-15T04:08:28.462Z,26.20
2023-05-15T04:09:18.523Z,31.80
2023-05-15T04:10:08.583Z,30.14
2023-05-15T04:10:58.637Z,31.22
2023-05-15T04:11:48.728Z,29.39
2023-05-15T04:12:38.739Z,28.14
2023-05-15T04:13:28.807Z,28.25
2023-05-15T04:14:18.903Z,27.23
2023-05-15T04:15:09.113Z,28.27
2023-05-15T04:15:59.209Z,26.85
2023-05-15T04:16:49.341Z,35.50
2023-05-15T04:17:39.319Z,29.53
2023-05-15T04:18:29.527Z,26.79
2023-05-15T04:19:19.556Z,26.55
2023-05-15T04:20:09.468Z,27.15
2023-05-15T04:20:59.512Z,28.91
2023-05-15T04:21:49.590Z,30.99
2023-05-15T04:22:39.622Z,26.90
2023-05-15T04:23:29.676Z,32.29
2023-05-15T04:24:19.743Z,30.51
2023-05-15T04:25:09.804Z,33.70
2023-05-15T04:25:59.873Z,26.93
2023-05-15T04:26:50.030Z,28.98
2023-05-15T04:27:39.983Z,33.33
2023-05-15T04:28:30.620Z,30.38
2023-05-15T04:29:20.102Z,36.93
2023-05-15T04:30:10.176Z,35.53
2023-05-15T04:31:00.481Z,28.34
2023-05-15T04:31:50.583Z,29.73
2023-05-15T04:32:40.650Z,28.53
2023-05-15T04:33:30.647Z,31.18
2023-05-15T04:34:20.684Z,29.33
2023-05-15T04:35:10.805Z,34.15
2023-05-15T04:36:00.791Z,30.57
2023-05-15T04:36:50.867Z,27.86
2023-05-15T04:37:40.900Z,29.46
2023-05-15T04:38:30.948Z,31.61
2023-05-15T04:39:21.008Z,27.18
2023-05-15T04:40:11.300Z,29.94
2023-05-15T04:41:01.358Z,30.87
2023-05-15T04:41:51.428Z,29.23
2023-05-15T04:42:41.450Z,30.15
2023-05-15T04:43:31.523Z,33.85
2023-05-15T04:44:21.583Z,35.55
2023-05-15T04:45:11.645Z,32.03
2023-05-15T04:46:01.760Z,27.22
2023-05-15T04:46:51.819Z,30.29
2023-05-15T04:47:41.877Z,31.63
2023-05-15T04:48:31.879Z,28.93
2023-05-15T04:49:22.151Z,28.14
2023-05-15T04:50:12.178Z,28.93
2023-05-15T04:51:02.247Z,28.46
2023-05-15T04:51:52.593Z,29.58
2023-05-15T04:52:42.606Z,31.31
2023-05-15T04:53:32.673Z,29.55
2023-05-15T04:54:22.993Z,29.07
2023-05-15T04:55:13.062Z,28.97
2023-05-15T04:56:03.122Z,28.51
2023-05-15T04:56:53.213Z,26.18
2023-05-15T04:57:43.245Z,25.00
2023-05-15T04:58:33.305Z,25.77
2023-05-15T04:59:23.353Z,29.64
2023-05-15T05:00:13.448Z,25.00
2023-05-15T05:01:04.381Z,25.00
2023-05-15T05:01:53.672Z,29.47
2023-05-15T05:02:43.671Z,26.54
2023-05-15T05:03:33.663Z,25.00
2023-05-15T05:04:23.706Z,28.21
2023-05-15T05:05:13.796Z,26.50
2023-05-15T05:06:03.839Z,32.64
2023-05-15T05:06:53.927Z,31.57
2023-05-15T05:07:43.948Z,31.98
2023-05-15T05:08:34.014Z,31.13
2023-05-15T05:09:24.075Z,33.78
2023-05-15T05:10:14.315Z,35.65
2023-05-15T05:11:04.426Z,34.99
2023-05-15T05:11:54.480Z,35.46
2023-05-15T05:12:44.759Z,33.50
2023-05-15T05:13:34.812Z,36.92
2023-05-15T05:14:24.873Z,36.74
2023-05-15T05:15:14.940Z,39.50
2023-05-15T05:16:05.075Z,35.49
2023-05-15T05:16:55.084Z,34.26
2023-05-15T05:17:45.122Z,32.38
2023-05-15T05:18:35.288Z,36.20
2023-05-15T05:19:25.234Z,39.24
2023-05-15T05:20:15.333Z,37.59
2023-05-15T05:21:05.359Z,33.99
2023-05-15T05:21:55.692Z,34.07
2023-05-15T05:22:45.690Z,40.60
2023-05-15T05:23:35.760Z,36.00
2023-05-15T05:24:26.086Z,38.48
2023-05-15T05:25:16.148Z,34.21
2023-05-15T05:26:06.339Z,35.55
2023-05-15T05:26:56.551Z,32.92
2023-05-15T05:27:46.579Z,31.90
2023-05-15T05:28:36.640Z,29.78
2023-05-15T05:29:26.956Z,29.87
2023-05-15T05:30:17.067Z,30.11
2023-05-15T05:31:07.094Z,28.21
2023-05-15T05:31:57.267Z,26.56
2023-05-15T05:32:47.282Z,35.98
2023-05-15T05:33:37.283Z,33.75
2023-05-15T05:34:27.355Z,35.94
2023-05-15T05:35:17.459Z,36.92
2023-05-15T05:36:07.447Z,36.68
2023-05-15T05:36:57.539Z,36.59
2023-05-15T05:37:47.561Z,40.43
2023-05-15T05:38:37.636Z,35.45
2023-05-15T05:39:27.697Z,41.92
2023-05-15T05:40:17.765Z,29.07
2023-05-15T05:41:07.844Z,36.88
2023-05-15T05:41:57.943Z,38.69
2023-05-15T05:42:47.974Z,31.86
2023-05-15T05:43:38.058Z,30.67
2023-05-15T05:44:28.104Z,27.96
2023-05-15T05:45:18.399Z,28.75
2023-05-15T05:46:08.453Z,31.87
2023-05-15T05:46:58.622Z,34.92
2023-05-15T05:47:48.631Z,25.10
2023-05-15T05:48:38.621Z,27.17
2023-05-15T05:49:28.714Z,30.42
2023-05-15T05:50:18.729Z,36.52
2023-05-15T05:51:08.793Z,27.38
2023-05-15T05:51:58.850Z,29.69
2023-05-15T05:52:48.879Z,29.59
2023-05-15T05:53:39.659Z,31.57
2023-05-15T05:54:29.270Z,32.31
2023-05-15T05:55:19.361Z,35.61
2023-05-15T05:56:09.417Z,33.69
2023-05-15T05:56:59.787Z,38.96
2023-05-15T05:57:49.801Z,37.98
2023-05-15T05:58:39.878Z,41.76
2023-05-15T05:59:29.903Z,43.89
2023-05-15T06:00:19.977Z,50.60
2023-05-15T06:01:10.016Z,58.24
2023-05-15T06:02:00.185Z,52.48
2023-05-15T06:02:50.277Z,51.80
2023-05-15T06:03:40.286Z,50.07
2023-05-15T06:04:30.298Z,46.54
2023-05-15T06:05:20.302Z,42.66
2023-05-15T06:06:10.589Z,50.99
2023-05-15T06:07:00.766Z,44.87
2023-05-15T06:07:50.700Z,43.72
2023-05-15T06:08:40.769Z,50.10
2023-05-15T06:09:30.815Z,50.29
2023-05-15T06:10:20.848Z,47.69
2023-05-15T06:11:10.917Z,49.79
2023-05-15T06:12:01.016Z,55.23
2023-05-15T06:12:51.051Z,50.83
2023-05-15T06:13:41.116Z,53.04
2023-05-15T06:14:31.158Z,52.63
2023-05-15T06:15:21.482Z,50.24
2023-05-15T06:16:11.515Z,56.47
2023-05-15T06:17:01.677Z,50.89
2023-05-15T06:17:51.652Z,53.22
2023-05-15T06:18:41.752Z,51.27
2023-05-15T06:19:31.785Z,57.78
2023-05-15T06:20:21.882Z,58.01
2023-05-15T06:21:11.976Z,67.87
2023-05-15T06:22:01.971Z,60.89
2023-05-15T06:22:52.024Z,69.14
2023-05-15T06:23:42.062Z,63.38
2023-05-15T06:24:32.348Z,66.98
2023-05-15T06:25:22.394Z,67.17
2023-05-15T06:26:12.415Z,75.67
2023-05-15T06:27:02.516Z,75.19
2023-05-15T06:27:52.531Z,73.66
2023-05-15T06:28:42.614Z,72.00
2023-05-15T06:29:32.673Z,72.19
2023-05-15T06:30:23.479Z,72.21
2023-05-15T06:31:12.825Z,68.39
2023-05-15T06:32:02.901Z,72.32
2023-05-15T06:32:52.980Z,72.21
2023-05-15T06:33:43.237Z,70.99
2023-05-15T06:34:33.305Z,70.66
2023-05-15T06:35:23.374Z,71.78
2023-05-15T06:36:13.660Z,68.89
2023-05-15T06:37:03.769Z,67.05
2023-05-15T06:37:54.096Z,60.61
2023-05-15T06:38:43.898Z,65.83
2023-05-15T06:39:33.905Z,59.81
2023-05-15T06:40:24.182Z,66.74
2023-05-15T06:41:14.030Z,65.36
2023-05-15T06:42:04.219Z,64.88
2023-05-15T06:42:54.161Z,60.84
2023-05-15T06:43:44.434Z,62.84
2023-05-15T06:44:34.325Z,60.20
2023-05-15T06:45:24.641Z,56.30
2023-05-15T06:46:14.389Z,56.33
2023-05-15T06:47:04.779Z,55.95
2023-05-15T06:47:54.672Z,60.05
2023-05-15T06:48:44.670Z,61.84
2023-05-15T06:49:34.741Z,59.98
2023-05-15T06:50:24.815Z,57.52
2023-05-15T06:51:14.840Z,58.11
2023-05-15T06:52:04.997Z,56.96
2023-05-15T06:52:54.984Z,59.56
2023-05-15T06:53:45.115Z,57.11
2023-05-15T06:54:35.129Z,57.55
2023-05-15T06:55:25.556Z,59.48
2023-05-15T06:56:15.504Z,53.56
2023-05-15T06:57:05.644Z,58.26
2023-05-15T06:57:55.643Z,63.03
2023-05-15T06:58:45.775Z,64.70
2023-05-15T06:59:35.751Z,58.01
2023-05-15T07:00:25.910Z,55.24
2023-05-15T07:01:15.926Z,51.45
2023-05-15T07:02:06.052Z,52.77
2023-05-15T07:02:56.090Z,46.64
2023-05-15T07:03:46.105Z,47.37
2023-05-15T07:04:36.151Z,42.53
2023-05-15T07:05:26.422Z,40.19
2023-05-15T07:06:16.153Z,34.37
2023-05-15T07:07:06.437Z,45.11
2023-05-15T07:07:56.470Z,41.87
2023-05-15T07:08:46.556Z,38.62
2023-05-15T07:09:36.860Z,46.43
2023-05-15T07:10:26.976Z,57.14
2023-05-15T07:11:16.653Z,55.19
2023-05-15T07:12:06.773Z,65.81
2023-05-15T07:12:56.791Z,72.21
2023-05-15T07:13:47.121Z,69.11
2023-05-15T07:14:37.071Z,72.36
2023-05-15T07:15:27.176Z,70.88
2023-05-15T07:16:17.438Z,75.73
2023-05-15T07:17:07.570Z,69.41
2023-05-15T07:17:57.660Z,69.29
2023-05-15T07:18:47.698Z,73.40
2023-05-15T07:19:37.753Z,74.02
2023-05-15T07:20:30.892Z,73.64
2023-05-15T07:21:17.732Z,77.72
2023-05-15T07:22:07.877Z,77.37
2023-05-15T07:22:57.850Z,79.74
2023-05-15T07:23:47.992Z,83.46
2023-05-15T07:24:40.321Z,88.77
2023-05-15T07:25:28.640Z,79.57
2023-05-15T07:26:31.105Z,83.16
2023-05-15T07:27:09.391Z,74.97
2023-05-15T07:27:58.477Z,71.41
2023-05-15T07:28:48.496Z,71.43
2023-05-15T07:29:38.619Z,60.48
2023-05-15T07:30:28.699Z,65.36
2023-05-15T07:31:18.762Z,67.17
2023-05-15T07:32:08.754Z,68.27
2023-05-15T07:32:58.989Z,66.46
2023-05-15T07:33:48.988Z,66.92
2023-05-15T07:34:39.184Z,76.62
2023-05-15T07:35:29.102Z,69.71
2023-05-15T07:36:19.212Z,70.65
2023-05-15T07:37:09.189Z,79.29
2023-05-15T07:37:59.295Z,78.50
2023-05-15T07:38:49.300Z,78.06
2023-05-15T07:39:39.442Z,80.31
2023-05-15T07:40:29.409Z,84.38
2023-05-15T07:41:19.911Z,80.80
2023-05-15T07:42:09.746Z,81.52
2023-05-15T07:42:59.831Z,77.66
2023-05-15T07:43:49.887Z,78.59
2023-05-15T07:44:40.685Z,82.08
2023-05-15T07:45:30.049Z,82.17
2023-05-15T07:46:20.138Z,82.64
2023-05-15T07:47:10.113Z,83.93
2023-05-15T07:48:00.289Z,85.31
2023-05-15T07:48:50.237Z,85.97
2023-05-15T07:49:40.392Z,89.88
2023-05-15T07:50:30.361Z,88.62
2023-05-15T07:51:20.452Z,87.48
2023-05-15T07:52:10.624Z,88.81
2023-05-15T07:53:00.828Z,94.65
2023-05-15T07:53:50.705Z,90.04
2023-05-15T07:54:40.840Z,93.41
2023-05-15T07:55:30.814Z,96.56
2023-05-15T07:56:20.881Z,91.57
2023-05-15T07:57:11.033Z,89.10
2023-05-15T07:58:01.062Z,93.91
2023-05-15T07:58:51.078Z,92.91
2023-05-15T07:59:41.183Z,94.13
2023-05-15T08:00:31.152Z,92.89
2023-05-15T08:01:21.239Z,95.33
2023-05-15T08:02:11.281Z,94.56
2023-05-15T08:03:01.652Z,99.87
2023-05-15T08:03:51.493Z,96.21
2023-05-15T08:04:41.603Z,96.23
2023-05-15T08:05:31.480Z,95.49
2023-05-15T08:06:21.574Z,96.34
2023-05-15T08:07:11.578Z,98.69
2023-05-15T08:08:01.761Z,95.97
2023-05-15T08:08:51.848Z,97.54
2023-05-15T08:09:41.969Z,99.25
2023-05-15T08:10:31.940Z,99.85
2023-05-15T08:11:22.325Z,103.39
2023-05-15T08:12:12.289Z,106.98
2023-05-15T08:13:02.543Z,101.91
2023-05-15T08:13:52.423Z,103.48
2023-05-15T08:14:42.683Z,104.68
2023-05-15T08:15:32.619Z,108.39
2023-05-15T08:16:22.800Z,105.08
2023-05-15T08:17:12.638Z,107.87
2023-05-15T08:18:02.782Z,107.73
2023-05-15T08:18:52.775Z,107.63
2023-05-15T08:19:42.816Z,105.21
2023-05-15T08:20:33.001Z,103.86
2023-05-15T08:21:23.060Z,107.11
2023-05-15T08:22:13.129Z,105.27
2023-05-15T08:23:03.472Z,105.56
2023-05-15T08:23:53.653Z,107.03
2023-05-15T08:24:43.573Z,105.42
2023-05-15T08:25:33.894Z,106.28
2023-05-15T08:26:23.952Z,108.25
2023-05-15T08:27:14.008Z,107.32
2023-05-15T08:28:04.373Z,107.77
2023-05-15T08:28:54.400Z,108.66
2023-05-15T08:29:44.437Z,108.65
2023-05-15T08:30:34.752Z,108.46
2023-05-15T08:31:24.841Z,107.98
2023-05-15T08:32:14.852Z,109.24
2023-05-15T08:33:04.996Z,111.35
2023-05-15T08:33:54.978Z,112.73
2023-05-15T08:34:45.085Z,112.17
2023-05-15T08:35:35.097Z,108.22
2023-05-15T08:36:25.217Z,112.22
2023-05-15T08:37:15.263Z,109.23
2023-05-15T08:38:05.339Z,111.26
2023-05-15T08:38:55.404Z,108.83
2023-05-15T08:39:45.459Z,110.34
2023-05-15T08:40:39.472Z,109.50
2023-05-15T08:41:38.859Z,109.61
2023-05-15T08:42:16.662Z,109.55
2023-05-15T08:43:05.717Z,110.08
2023-05-15T08:43:55.739Z,110.35
2023-05-15T08:44:45.951Z,112.12
2023-05-15T08:45:35.848Z,112.07
2023-05-15T08:46:25.938Z,118.66
2023-05-15T08:47:16.005Z,112.63
2023-05-15T08:48:06.291Z,113.93
2023-05-15T08:48:56.376Z,112.97
2023-05-15T08:49:46.322Z,110.80
2023-05-15T08:50:36.632Z,116.56
2023-05-15T08:51:27.719Z,112.52
2023-05-15T08:52:16.755Z,113.55
2023-05-15T08:53:06.856Z,117.97
2023-05-15T08:53:56.876Z,117.64
2023-05-15T08:54:48.259Z,113.55
2023-05-15T08:55:36.996Z,117.15
2023-05-15T08:56:27.064Z,116.68
2023-05-15T08:57:17.211Z,122.08
2023-05-15T08:58:07.292Z,118.43
2023-05-15T08:58:57.344Z,113.24
2023-05-15T08:59:47.665Z,117.90
2023-05-15T09:00:37.919Z,115.91
2023-05-15T09:01:27.819Z,119.50
2023-05-15T09:02:18.107Z,113.03
2023-05-15T09:03:08.255Z,115.97
2023-05-15T09:03:58.263Z,115.93
2023-05-15T09:04:48.302Z,117.87
2023-05-15T09:05:40.134Z,118.49
2023-05-15T09:06:28.416Z,121.13
2023-05-15T09:07:18.469Z,119.98
2023-05-15T09:08:08.547Z,118.05
2023-05-15T09:08:58.570Z,117.90
2023-05-15T09:09:48.630Z,118.29
2023-05-15T09:10:38.687Z,120.15
2023-05-15T09:11:28.757Z,119.68
2023-05-15T09:12:18.809Z,119.71
2023-05-15T09:13:09.115Z,119.55
2023-05-15T09:13:59.130Z,114.58
2023-05-15T09:14:49.197Z,118.31
2023-05-15T09:15:39.513Z,114.39
2023-05-15T09:16:29.628Z,118.24
2023-05-15T09:17:19.638Z,115.89
2023-05-15T09:18:09.888Z,116.00
2023-05-15T09:18:59.883Z,116.09
2023-05-15T09:19:49.857Z,117.03
2023-05-15T09:20:39.868Z,118.13
2023-05-15T09:21:29.933Z,118.23
2023-05-15T09:22:20.113Z,121.19
2023-05-15T09:23:10.195Z,118.14
2023-05-15T09:24:00.213Z,120.11
2023-05-15T09:24:50.283Z,119.83
2023-05-15T09:25:40.344Z,117.15
2023-05-15T09:26:30.394Z,125.64
2023-05-15T09:27:20.471Z,124.66
2023-05-15T09:28:10.569Z,121.94
2023-05-15T09:29:00.554Z,117.48
2023-05-15T09:29:50.613Z,119.16
2023-05-15T09:30:40.666Z,116.25
2023-05-15T09:31:30.836Z,116.33
2023-05-15T09:32:20.881Z,116.47
2023-05-15T09:33:10.925Z,116.83
2023-05-15T09:34:00.900Z,116.45
2023-05-15T09:34:50.971Z,116.76
2023-05-15T09:35:41.044Z,117.52
2023-05-15T09:36:31.090Z,117.66
2023-05-15T09:37:21.141Z,119.07
2023-05-15T09:38:11.216Z,121.99
2023-05-15T09:39:01.323Z,128.38
2023-05-15T09:39:51.336Z,121.64
2023-05-15T09:40:41.566Z,121.94
2023-05-15T09:41:31.623Z,119.48
2023-05-15T09:42:22.261Z,123.16
2023-05-15T09:43:11.779Z,119.42
2023-05-15T09:44:01.773Z,123.78
2023-05-15T09:44:51.840Z,125.04
2023-05-15T09:45:41.899Z,122.46
2023-05-15T09:46:32.009Z,126.31
2023-05-15T09:47:22.130Z,121.52
2023-05-15T09:48:12.342Z,119.30
2023-05-15T09:49:02.123Z,120.94
2023-05-15T09:49:52.438Z,124.62
2023-05-15T09:50:42.534Z,121.85
2023-05-15T09:51:32.589Z,122.58
2023-05-15T09:52:22.838Z,119.61
2023-05-15T09:53:12.972Z,125.17
2023-05-15T09:54:02.956Z,119.55
2023-05-15T09:54:53.010Z,118.09
2023-05-15T09:55:43.070Z,121.65
2023-05-15T09:56:33.138Z,120.91
2023-05-15T09:57:23.198Z,123.81
2023-05-15T09:58:14.281Z,123.34
2023-05-15T09:59:03.307Z,123.09
2023-05-15T09:59:53.389Z,118.68
2023-05-15T10:00:47.980Z,121.94
2023-05-15T10:01:34.504Z,121.99
2023-05-15T10:02:23.522Z,122.01
2023-05-15T10:03:13.744Z,120.17
2023-05-15T10:04:03.701Z,121.65
2023-05-15T10:04:53.723Z,123.62
2023-05-15T10:05:44.300Z,123.69
2023-05-15T10:06:33.816Z,121.66
2023-05-15T10:07:23.870Z,124.72
2023-05-15T10:08:13.952Z,119.85
2023-05-15T10:09:03.972Z,125.76
2023-05-15T10:09:54.099Z,123.18
2023-05-15T10:10:44.072Z,120.85
2023-05-15T10:11:34.140Z,125.71
2023-05-15T10:12:24.204Z,124.56
2023-05-15T10:13:14.309Z,120.76
2023-05-15T10:14:04.492Z,126.25
2023-05-15T10:14:54.651Z,124.80
2023-05-15T10:15:44.610Z,120.89
2023-05-15T10:16:34.826Z,122.80
2023-05-15T10:17:24.728Z,124.85
2023-05-15T10:18:14.840Z,124.05
2023-05-15T10:19:05.303Z,125.75
2023-05-15T10:19:58.253Z,125.62
2023-05-15T10:20:44.865Z,124.16
2023-05-15T10:21:34.931Z,122.73
2023-05-15T10:22:24.951Z,121.61
2023-05-15T10:23:15.084Z,124.97
2023-05-15T10:24:05.068Z,120.74
2023-05-15T10:24:55.231Z,122.27
2023-05-15T10:25:45.414Z,121.71
2023-05-15T10:26:36.613Z,124.72
2023-05-15T10:27:25.502Z,122.13
2023-05-15T10:28:15.629Z,127.27
2023-05-15T10:29:05.612Z,122.56
2023-05-15T10:29:55.675Z,127.30
2023-05-15T10:30:45.726Z,123.09
2023-05-15T10:31:35.904Z,124.07
2023-05-15T10:32:25.864Z,126.84
2023-05-15T10:33:16.051Z,123.19
2023-05-15T10:34:05.976Z,126.18
2023-05-15T10:34:56.145Z,122.97
2023-05-15T10:35:46.214Z,122.15
2023-05-15T10:36:36.175Z,124.91
2023-05-15T10:37:26.177Z,122.30
2023-05-15T10:38:16.316Z,119.45
2023-05-15T10:39:06.477Z,121.03
2023-05-15T10:39:56.567Z,120.15